sensor_id;sensor_type;location;lat;lon;timestamp;P1;durP1;ratioP1;P2;durP2;ratioP2
8716;SDS011;4395;48.554;8.820;2022-11-12T00:01:15;100.10;;;11.05;;
8716;SDS011;4395;48.554;8.820;2022-11-12T00:03:37;27.83;;;8.95;;
8716;SDS011;4395;48.554;8.820;2022-11-12T00:05:58;41.47;;;9.30;;
8716;SDS011;4395;48.554;8.820;2022-11-12T00:08:20;27.65;;;8.77;;
8716;SDS011;4395;48.554;8.820;2022-11-12T00:10:42;19.58;;;8.90;;
8716;SDS011;4395;48.554;8.820;2022-11-12T00:13:04;67.65;;;10.18;;
8716;SDS011;4395;48.554;8.820;2022-11-12T00:15:27;25.13;;;8.85;;
8716;SDS011;4395;48.554;8.820;2022-11-12T00:17:48;13.82;;;8.15;;
8716;SDS011;4395;48.554;8.820;2022-11-12T00:20:09;43.33;;;9.20;;
8716;SDS011;4395;48.554;8.820;2022-11-12T00:22:32;20.30;;;8.93;;
8716;SDS011;4395;48.554;8.820;2022-11-12T00:24:53;24.40;;;9.57;;
8716;SDS011;4395;48.554;8.820;2022-11-12T00:27:15;25.08;;;8.63;;
8716;SDS011;4395;48.554;8.820;2022-11-12T00:29:36;31.20;;;9.40;;
8716;SDS011;4395;48.554;8.820;2022-11-12T00:31:59;32.88;;;9.30;;
8716;SDS011;4395;48.554;8.820;2022-11-12T00:34:20;29.17;;;9.98;;
8716;SDS011;4395;48.554;8.820;2022-11-12T00:36:42;33.90;;;9.40;;
8716;SDS011;4395;48.554;8.820;2022-11-12T00:39:04;23.58;;;9.02;;
8716;SDS011;4395;48.554;8.820;2022-11-12T00:41:26;37.05;;;10.23;;
8716;SDS011;4395;48.554;8.820;2022-11-12T00:43:47;60.78;;;10.60;;
8716;SDS011;4395;48.554;8.820;2022-11-12T00:46:08;90.00;;;12.10;;
8716;SDS011;4395;48.554;8.820;2022-11-12T00:48:33;32.72;;;9.43;;
8716;SDS011;4395;48.554;8.820;2022-11-12T00:50:58;48.78;;;9.82;;
8716;SDS011;4395;48.554;8.820;2022-11-12T00:53:20;79.70;;;11.73;;
8716;SDS011;4395;48.554;8.820;2022-11-12T00:55:41;98.38;;;11.38;;
8716;SDS011;4395;48.554;8.820;2022-11-12T00:58:02;73.88;;;10.00;;
8716;SDS011;4395;48.554;8.820;2022-11-12T01:00:24;118.20;;;12.05;;
8716;SDS011;4395;48.554;8.820;2022-11-12T01:02:46;51.17;;;9.70;;
8716;SDS011;4395;48.554;8.820;2022-11-12T01:05:11;66.00;;;9.90;;
8716;SDS011;4395;48.554;8.820;2022-11-12T01:07:33;43.72;;;8.60;;
8716;SDS011;4395;48.554;8.820;2022-11-12T01:09:54;60.78;;;8.70;;
8716;SDS011;4395;48.554;8.820;2022-11-12T01:12:16;59.72;;;9.23;;
8716;SDS011;4395;48.554;8.820;2022-11-12T01:14:38;26.20;;;7.18;;
8716;SDS011;4395;48.554;8.820;2022-11-12T01:16:59;24.92;;;8.15;;
8716;SDS011;4395;48.554;8.820;2022-11-12T01:19:21;25.63;;;7.25;;
8716;SDS011;4395;48.554;8.820;2022-11-12T01:21:43;37.08;;;8.35;;
8716;SDS011;4395;48.554;8.820;2022-11-12T01:24:05;25.70;;;7.20;;
8716;SDS011;4395;48.554;8.820;2022-11-12T01:26:27;35.97;;;7.53;;
8716;SDS011;4395;48.554;8.820;2022-11-12T01:28:48;16.15;;;6.43;;
8716;SDS011;4395;48.554;8.820;2022-11-12T01:31:11;35.35;;;6.72;;
8716;SDS011;4395;48.554;8.820;2022-11-12T01:33:34;18.48;;;6.00;;
8716;SDS011;4395;48.554;8.820;2022-11-12T01:35:57;19.02;;;6.10;;
8716;SDS011;4395;48.554;8.820;2022-11-12T01:38:20;9.48;;;5.82;;
8716;SDS011;4395;48.554;8.820;2022-11-12T01:40:42;5.38;;;4.88;;
8716;SDS011;4395;48.554;8.820;2022-11-12T01:43:04;5.35;;;4.85;;
8716;SDS011;4395;48.554;8.820;2022-11-12T01:45:31;7.85;;;6.18;;
8716;SDS011;4395;48.554;8.820;2022-11-12T01:47:53;8.13;;;6.68;;
8716;SDS011;4395;48.554;8.820;2022-11-12T01:50:16;10.35;;;8.32;;
8716;SDS011;4395;48.554;8.820;2022-11-12T01:52:44;6.70;;;4.85;;
8716;SDS011;4395;48.554;8.820;2022-11-12T01:55:10;5.22;;;4.72;;
8716;SDS011;4395;48.554;8.820;2022-11-12T01:57:36;4.20;;;3.88;;
8716;SDS011;4395;48.554;8.820;2022-11-12T02:00:03;4.82;;;4.43;;
8716;SDS011;4395;48.554;8.820;2022-11-12T02:02:26;5.35;;;4.88;;
8716;SDS011;4395;48.554;8.820;2022-11-12T02:04:48;11.88;;;7.70;;
8716;SDS011;4395;48.554;8.820;2022-11-12T02:07:11;24.48;;;14.05;;
8716;SDS011;4395;48.554;8.820;2022-11-12T02:09:33;6.22;;;5.28;;
8716;SDS011;4395;48.554;8.820;2022-11-12T02:11:56;6.20;;;5.00;;
8716;SDS011;4395;48.554;8.820;2022-11-12T02:14:19;6.00;;;5.32;;
8716;SDS011;4395;48.554;8.820;2022-11-12T02:16:40;6.90;;;5.47;;
8716;SDS011;4395;48.554;8.820;2022-11-12T02:19:04;10.10;;;6.47;;
8716;SDS011;4395;48.554;8.820;2022-11-12T02:21:28;12.20;;;7.93;;
8716;SDS011;4395;48.554;8.820;2022-11-12T02:24:01;14.50;;;8.93;;
8716;SDS011;4395;48.554;8.820;2022-11-12T02:26:24;6.53;;;5.55;;
8716;SDS011;4395;48.554;8.820;2022-11-12T02:28:47;5.57;;;4.90;;
8716;SDS011;4395;48.554;8.820;2022-11-12T02:31:08;5.43;;;4.93;;
8716;SDS011;4395;48.554;8.820;2022-11-12T02:33:29;5.20;;;4.70;;
8716;SDS011;4395;48.554;8.820;2022-11-12T02:35:50;5.20;;;4.70;;
8716;SDS011;4395;48.554;8.820;2022-11-12T02:38:13;5.18;;;4.68;;
8716;SDS011;4395;48.554;8.820;2022-11-12T02:40:35;5.00;;;4.50;;
8716;SDS011;4395;48.554;8.820;2022-11-12T02:42:56;8.70;;;6.28;;
8716;SDS011;4395;48.554;8.820;2022-11-12T02:45:18;24.55;;;13.23;;
8716;SDS011;4395;48.554;8.820;2022-11-12T02:47:40;16.75;;;10.93;;
8716;SDS011;4395;48.554;8.820;2022-11-12T02:50:01;23.08;;;13.02;;
8716;SDS011;4395;48.554;8.820;2022-11-12T02:52:23;16.60;;;10.02;;
8716;SDS011;4395;48.554;8.820;2022-11-12T02:54:45;28.23;;;16.83;;
8716;SDS011;4395;48.554;8.820;2022-11-12T02:57:07;23.05;;;14.63;;
8716;SDS011;4395;48.554;8.820;2022-11-12T02:59:28;16.95;;;11.68;;
8716;SDS011;4395;48.554;8.820;2022-11-12T03:01:50;6.32;;;4.97;;
8716;SDS011;4395;48.554;8.820;2022-11-12T03:04:11;5.20;;;4.70;;
8716;SDS011;4395;48.554;8.820;2022-11-12T03:06:32;4.63;;;4.22;;
8716;SDS011;4395;48.554;8.820;2022-11-12T03:08:54;5.20;;;4.45;;
8716;SDS011;4395;48.554;8.820;2022-11-12T03:11:16;7.97;;;6.90;;
8716;SDS011;4395;48.554;8.820;2022-11-12T03:13:39;9.23;;;7.55;;
8716;SDS011;4395;48.554;8.820;2022-11-12T03:16:00;10.40;;;8.18;;
8716;SDS011;4395;48.554;8.820;2022-11-12T03:18:22;9.15;;;7.47;;
8716;SDS011;4395;48.554;8.820;2022-11-12T03:20:44;6.18;;;5.57;;
8716;SDS011;4395;48.554;8.820;2022-11-12T03:23:06;7.65;;;6.85;;
8716;SDS011;4395;48.554;8.820;2022-11-12T03:25:29;9.50;;;8.60;;
8716;SDS011;4395;48.554;8.820;2022-11-12T03:27:58;8.85;;;7.95;;
8716;SDS011;4395;48.554;8.820;2022-11-12T03:30:20;9.60;;;8.63;;
8716;SDS011;4395;48.554;8.820;2022-11-12T03:32:42;8.15;;;7.38;;
8716;SDS011;4395;48.554;8.820;2022-11-12T03:35:03;6.85;;;6.15;;
8716;SDS011;4395;48.554;8.820;2022-11-12T03:37:25;6.25;;;5.65;;
8716;SDS011;4395;48.554;8.820;2022-11-12T03:39:46;4.75;;;4.35;;
8716;SDS011;4395;48.554;8.820;2022-11-12T03:42:08;6.20;;;5.70;;
8716;SDS011;4395;48.554;8.820;2022-11-12T03:44:31;6.10;;;5.50;;
8716;SDS011;4395;48.554;8.820;2022-11-12T03:46:52;7.15;;;5.28;;
8716;SDS011;4395;48.554;8.820;2022-11-12T03:49:14;5.50;;;5.00;;
8716;SDS011;4395;48.554;8.820;2022-11-12T03:51:36;5.72;;;5.22;;
8716;SDS011;4395;48.554;8.820;2022-11-12T03:53:57;5.35;;;4.85;;
8716;SDS011;4395;48.554;8.820;2022-11-12T03:56:18;6.55;;;5.95;;
8716;SDS011;4395;48.554;8.820;2022-11-12T03:58:40;7.90;;;6.95;;
8716;SDS011;4395;48.554;8.820;2022-11-12T04:01:02;8.60;;;7.70;;
8716;SDS011;4395;48.554;8.820;2022-11-12T04:03:24;7.57;;;6.78;;
8716;SDS011;4395;48.554;8.820;2022-11-12T04:05:45;5.40;;;4.90;;
8716;SDS011;4395;48.554;8.820;2022-11-12T04:08:24;5.32;;;4.82;;
8716;SDS011;4395;48.554;8.820;2022-11-12T04:10:58;5.28;;;4.78;;
8716;SDS011;4395;48.554;8.820;2022-11-12T04:13:20;5.68;;;5.18;;
8716;SDS011;4395;48.554;8.820;2022-11-12T04:15:47;5.97;;;5.38;;
8716;SDS011;4395;48.554;8.820;2022-11-12T04:18:30;4.97;;;4.55;;
8716;SDS011;4395;48.554;8.820;2022-11-12T04:21:09;4.50;;;4.10;;
8716;SDS011;4395;48.554;8.820;2022-11-12T04:23:52;7.13;;;5.10;;
8716;SDS011;4395;48.554;8.820;2022-11-12T04:26:13;6.75;;;6.15;;
8716;SDS011;4395;48.554;8.820;2022-11-12T04:28:42;6.80;;;6.10;;
8716;SDS011;4395;48.554;8.820;2022-11-12T04:31:24;5.18;;;4.72;;
8716;SDS011;4395;48.554;8.820;2022-11-12T04:33:46;5.72;;;4.72;;
8716;SDS011;4395;48.554;8.820;2022-11-12T04:36:07;7.88;;;5.72;;
8716;SDS011;4395;48.554;8.820;2022-11-12T04:38:29;5.05;;;4.55;;
8716;SDS011;4395;48.554;8.820;2022-11-12T04:40:50;5.10;;;4.60;;
8716;SDS011;4395;48.554;8.820;2022-11-12T04:43:29;5.63;;;4.80;;
8716;SDS011;4395;48.554;8.820;2022-11-12T04:46:08;4.95;;;4.45;;
8716;SDS011;4395;48.554;8.820;2022-11-12T04:48:29;4.80;;;4.30;;
8716;SDS011;4395;48.554;8.820;2022-11-12T04:50:54;4.30;;;3.90;;
8716;SDS011;4395;48.554;8.820;2022-11-12T04:53:18;4.65;;;3.72;;
8716;SDS011;4395;48.554;8.820;2022-11-12T04:55:40;4.68;;;4.28;;
8716;SDS011;4395;48.554;8.820;2022-11-12T04:58:01;4.53;;;3.88;;
8716;SDS011;4395;48.554;8.820;2022-11-12T05:00:23;4.25;;;3.85;;
8716;SDS011;4395;48.554;8.820;2022-11-12T05:02:45;5.28;;;4.78;;
8716;SDS011;4395;48.554;8.820;2022-11-12T05:05:09;6.25;;;4.88;;
8716;SDS011;4395;48.554;8.820;2022-11-12T05:07:32;4.85;;;4.45;;
8716;SDS011;4395;48.554;8.820;2022-11-12T05:09:53;9.63;;;5.00;;
8716;SDS011;4395;48.554;8.820;2022-11-12T05:12:14;4.90;;;4.40;;
8716;SDS011;4395;48.554;8.820;2022-11-12T05:14:35;5.22;;;4.18;;
8716;SDS011;4395;48.554;8.820;2022-11-12T05:16:57;6.97;;;6.18;;
8716;SDS011;4395;48.554;8.820;2022-11-12T05:19:18;5.07;;;4.57;;
8716;SDS011;4395;48.554;8.820;2022-11-12T05:21:39;10.63;;;9.05;;
8716;SDS011;4395;48.554;8.820;2022-11-12T05:24:16;18.02;;;14.00;;
8716;SDS011;4395;48.554;8.820;2022-11-12T05:26:57;8.65;;;6.40;;
8716;SDS011;4395;48.554;8.820;2022-11-12T05:29:19;8.98;;;7.35;;
8716;SDS011;4395;48.554;8.820;2022-11-12T05:31:40;6.75;;;5.57;;
8716;SDS011;4395;48.554;8.820;2022-11-12T05:34:01;7.03;;;5.72;;
8716;SDS011;4395;48.554;8.820;2022-11-12T05:36:22;7.03;;;5.60;;
8716;SDS011;4395;48.554;8.820;2022-11-12T05:38:43;5.90;;;5.30;;
8716;SDS011;4395;48.554;8.820;2022-11-12T05:41:06;7.07;;;6.05;;
8716;SDS011;4395;48.554;8.820;2022-11-12T05:43:28;9.70;;;7.03;;
8716;SDS011;4395;48.554;8.820;2022-11-12T05:45:49;4.18;;;3.78;;
8716;SDS011;4395;48.554;8.820;2022-11-12T05:48:10;5.82;;;5.07;;
8716;SDS011;4395;48.554;8.820;2022-11-12T05:50:31;4.63;;;4.22;;
8716;SDS011;4395;48.554;8.820;2022-11-12T05:53:12;6.53;;;5.60;;
8716;SDS011;4395;48.554;8.820;2022-11-12T05:55:33;7.90;;;7.10;;
8716;SDS011;4395;48.554;8.820;2022-11-12T05:57:57;7.15;;;5.95;;
8716;SDS011;4395;48.554;8.820;2022-11-12T06:00:18;4.05;;;3.65;;
8716;SDS011;4395;48.554;8.820;2022-11-12T06:02:40;3.85;;;3.30;;
8716;SDS011;4395;48.554;8.820;2022-11-12T06:05:02;3.90;;;3.60;;
8716;SDS011;4395;48.554;8.820;2022-11-12T06:07:24;5.60;;;5.10;;
8716;SDS011;4395;48.554;8.820;2022-11-12T06:09:45;6.15;;;4.80;;
8716;SDS011;4395;48.554;8.820;2022-11-12T06:12:06;5.78;;;5.05;;
8716;SDS011;4395;48.554;8.820;2022-11-12T06:14:29;6.68;;;5.43;;
8716;SDS011;4395;48.554;8.820;2022-11-12T06:16:50;5.65;;;4.82;;
8716;SDS011;4395;48.554;8.820;2022-11-12T06:19:11;5.97;;;5.47;;
8716;SDS011;4395;48.554;8.820;2022-11-12T06:21:32;5.72;;;5.18;;
8716;SDS011;4395;48.554;8.820;2022-11-12T06:23:54;4.85;;;4.45;;
8716;SDS011;4395;48.554;8.820;2022-11-12T06:26:16;5.20;;;4.65;;
8716;SDS011;4395;48.554;8.820;2022-11-12T06:28:38;8.02;;;7.00;;
8716;SDS011;4395;48.554;8.820;2022-11-12T06:31:01;13.80;;;11.98;;
8716;SDS011;4395;48.554;8.820;2022-11-12T06:33:23;14.07;;;12.07;;
8716;SDS011;4395;48.554;8.820;2022-11-12T06:35:44;19.63;;;14.50;;
8716;SDS011;4395;48.554;8.820;2022-11-12T06:38:05;30.15;;;23.15;;
8716;SDS011;4395;48.554;8.820;2022-11-12T06:40:26;21.42;;;18.02;;
8716;SDS011;4395;48.554;8.820;2022-11-12T06:42:47;13.43;;;11.95;;
8716;SDS011;4395;48.554;8.820;2022-11-12T06:45:16;11.60;;;10.40;;
8716;SDS011;4395;48.554;8.820;2022-11-12T06:47:39;11.88;;;9.23;;
8716;SDS011;4395;48.554;8.820;2022-11-12T06:50:00;6.75;;;6.13;;
8716;SDS011;4395;48.554;8.820;2022-11-12T06:52:22;6.40;;;5.80;;
8716;SDS011;4395;48.554;8.820;2022-11-12T06:54:43;5.20;;;4.65;;
8716;SDS011;4395;48.554;8.820;2022-11-12T06:57:04;5.60;;;4.78;;
8716;SDS011;4395;48.554;8.820;2022-11-12T06:59:26;21.77;;;4.43;;
8716;SDS011;4395;48.554;8.820;2022-11-12T07:01:47;9.07;;;4.15;;
8716;SDS011;4395;48.554;8.820;2022-11-12T07:04:09;8.77;;;4.78;;
8716;SDS011;4395;48.554;8.820;2022-11-12T07:06:32;14.20;;;4.90;;
8716;SDS011;4395;48.554;8.820;2022-11-12T07:08:54;10.27;;;4.90;;
8716;SDS011;4395;48.554;8.820;2022-11-12T07:11:16;17.77;;;5.35;;
8716;SDS011;4395;48.554;8.820;2022-11-12T07:13:38;9.80;;;5.10;;
8716;SDS011;4395;48.554;8.820;2022-11-12T07:15:59;9.35;;;6.10;;
8716;SDS011;4395;48.554;8.820;2022-11-12T07:18:21;8.18;;;5.65;;
8716;SDS011;4395;48.554;8.820;2022-11-12T07:20:45;12.05;;;5.72;;
8716;SDS011;4395;48.554;8.820;2022-11-12T07:23:06;7.20;;;5.07;;
8716;SDS011;4395;48.554;8.820;2022-11-12T07:25:27;8.73;;;5.40;;
8716;SDS011;4395;48.554;8.820;2022-11-12T07:27:49;5.93;;;5.25;;
8716;SDS011;4395;48.554;8.820;2022-11-12T07:30:11;12.57;;;5.88;;
8716;SDS011;4395;48.554;8.820;2022-11-12T07:32:33;6.10;;;5.40;;
8716;SDS011;4395;48.554;8.820;2022-11-12T07:35:03;11.82;;;5.97;;
8716;SDS011;4395;48.554;8.820;2022-11-12T07:37:26;6.32;;;5.10;;
8716;SDS011;4395;48.554;8.820;2022-11-12T07:39:47;7.95;;;5.68;;
8716;SDS011;4395;48.554;8.820;2022-11-12T07:42:09;5.30;;;4.80;;
8716;SDS011;4395;48.554;8.820;2022-11-12T07:44:30;8.05;;;7.35;;
8716;SDS011;4395;48.554;8.820;2022-11-12T07:46:51;7.32;;;6.50;;
8716;SDS011;4395;48.554;8.820;2022-11-12T07:49:12;6.20;;;5.30;;
8716;SDS011;4395;48.554;8.820;2022-11-12T07:51:34;6.55;;;5.38;;
8716;SDS011;4395;48.554;8.820;2022-11-12T07:53:56;5.65;;;4.93;;
8716;SDS011;4395;48.554;8.820;2022-11-12T07:56:20;6.45;;;5.78;;
8716;SDS011;4395;48.554;8.820;2022-11-12T07:58:42;8.43;;;6.50;;
8716;SDS011;4395;48.554;8.820;2022-11-12T08:01:07;6.68;;;5.65;;
8716;SDS011;4395;48.554;8.820;2022-11-12T08:03:29;7.75;;;5.43;;
8716;SDS011;4395;48.554;8.820;2022-11-12T08:05:51;9.10;;;5.88;;
8716;SDS011;4395;48.554;8.820;2022-11-12T08:08:12;8.50;;;5.90;;
8716;SDS011;4395;48.554;8.820;2022-11-12T08:10:35;7.25;;;6.07;;
8716;SDS011;4395;48.554;8.820;2022-11-12T08:12:56;5.68;;;4.18;;
8716;SDS011;4395;48.554;8.820;2022-11-12T08:15:17;5.88;;;4.38;;
8716;SDS011;4395;48.554;8.820;2022-11-12T08:17:38;6.97;;;5.88;;
8716;SDS011;4395;48.554;8.820;2022-11-12T08:19:59;5.32;;;4.82;;
8716;SDS011;4395;48.554;8.820;2022-11-12T08:22:20;4.80;;;4.30;;
8716;SDS011;4395;48.554;8.820;2022-11-12T08:24:43;5.05;;;4.55;;
8716;SDS011;4395;48.554;8.820;2022-11-12T08:27:05;7.82;;;6.15;;
8716;SDS011;4395;48.554;8.820;2022-11-12T08:29:26;4.05;;;3.50;;
8716;SDS011;4395;48.554;8.820;2022-11-12T08:31:48;4.43;;;3.65;;
8716;SDS011;4395;48.554;8.820;2022-11-12T08:34:09;4.28;;;3.80;;
8716;SDS011;4395;48.554;8.820;2022-11-12T08:36:40;6.55;;;5.20;;
8716;SDS011;4395;48.554;8.820;2022-11-12T08:39:01;3.92;;;3.53;;
8716;SDS011;4395;48.554;8.820;2022-11-12T08:41:23;3.47;;;3.17;;
8716;SDS011;4395;48.554;8.820;2022-11-12T08:43:46;4.63;;;4.22;;
8716;SDS011;4395;48.554;8.820;2022-11-12T08:46:07;3.70;;;3.40;;
8716;SDS011;4395;48.554;8.820;2022-11-12T08:48:29;3.35;;;3.05;;
8716;SDS011;4395;48.554;8.820;2022-11-12T08:50:52;5.30;;;3.85;;
8716;SDS011;4395;48.554;8.820;2022-11-12T08:53:14;6.13;;;5.55;;
8716;SDS011;4395;48.554;8.820;2022-11-12T08:55:35;6.65;;;6.05;;
8716;SDS011;4395;48.554;8.820;2022-11-12T08:57:57;5.55;;;5.05;;
8716;SDS011;4395;48.554;8.820;2022-11-12T09:00:22;4.45;;;4.05;;
8716;SDS011;4395;48.554;8.820;2022-11-12T09:02:44;4.30;;;3.90;;
8716;SDS011;4395;48.554;8.820;2022-11-12T09:05:05;5.78;;;5.18;;
8716;SDS011;4395;48.554;8.820;2022-11-12T09:07:27;4.70;;;4.20;;
8716;SDS011;4395;48.554;8.820;2022-11-12T09:10:08;4.65;;;4.20;;
8716;SDS011;4395;48.554;8.820;2022-11-12T09:12:30;4.85;;;4.45;;
8716;SDS011;4395;48.554;8.820;2022-11-12T09:14:51;6.15;;;4.38;;
8716;SDS011;4395;48.554;8.820;2022-11-12T09:17:29;4.25;;;3.85;;
8716;SDS011;4395;48.554;8.820;2022-11-12T09:19:51;7.00;;;6.40;;
8716;SDS011;4395;48.554;8.820;2022-11-12T09:22:13;8.02;;;7.43;;
8716;SDS011;4395;48.554;8.820;2022-11-12T09:24:34;5.47;;;4.95;;
8716;SDS011;4395;48.554;8.820;2022-11-12T09:26:55;5.43;;;4.93;;
8716;SDS011;4395;48.554;8.820;2022-11-12T09:29:17;5.63;;;4.00;;
8716;SDS011;4395;48.554;8.820;2022-11-12T09:31:38;5.40;;;3.50;;
8716;SDS011;4395;48.554;8.820;2022-11-12T09:34:00;4.13;;;3.72;;
8716;SDS011;4395;48.554;8.820;2022-11-12T09:36:22;6.32;;;3.90;;
8716;SDS011;4395;48.554;8.820;2022-11-12T09:38:44;4.63;;;3.75;;
8716;SDS011;4395;48.554;8.820;2022-11-12T09:43:49;5.10;;;3.53;;
8716;SDS011;4395;48.554;8.820;2022-11-12T09:46:15;4.25;;;3.67;;
8716;SDS011;4395;48.554;8.820;2022-11-12T09:48:48;4.30;;;3.90;;
8716;SDS011;4395;48.554;8.820;2022-11-12T09:51:16;4.30;;;4.00;;
8716;SDS011;4395;48.554;8.820;2022-11-12T09:53:44;3.85;;;3.55;;
8716;SDS011;4395;48.554;8.820;2022-11-12T09:56:12;4.43;;;3.47;;
8716;SDS011;4395;48.554;8.820;2022-11-12T09:58:36;3.30;;;3.10;;
8716;SDS011;4395;48.554;8.820;2022-11-12T10:00:58;3.65;;;3.35;;
8716;SDS011;4395;48.554;8.820;2022-11-12T10:03:26;3.67;;;3.38;;
8716;SDS011;4395;48.554;8.820;2022-11-12T10:05:55;3.67;;;3.38;;
8716;SDS011;4395;48.554;8.820;2022-11-12T10:08:34;3.13;;;2.92;;
8716;SDS011;4395;48.554;8.820;2022-11-12T10:11:05;3.50;;;3.20;;
8716;SDS011;4395;48.554;8.820;2022-11-12T10:13:43;3.40;;;3.20;;
8716;SDS011;4395;48.554;8.820;2022-11-12T10:16:18;4.70;;;3.60;;
8716;SDS011;4395;48.554;8.820;2022-11-12T10:19:04;4.07;;;3.67;;
8716;SDS011;4395;48.554;8.820;2022-11-12T10:21:39;3.50;;;3.20;;
8716;SDS011;4395;48.554;8.820;2022-11-12T10:24:08;3.60;;;3.30;;
8716;SDS011;4395;48.554;8.820;2022-11-12T10:26:31;4.20;;;3.80;;
8716;SDS011;4395;48.554;8.820;2022-11-12T10:28:54;3.78;;;3.47;;
8716;SDS011;4395;48.554;8.820;2022-11-12T10:31:22;3.83;;;3.13;;
8716;SDS011;4395;48.554;8.820;2022-11-12T10:33:44;3.50;;;3.20;;
8716;SDS011;4395;48.554;8.820;2022-11-12T10:36:14;4.00;;;3.10;;
8716;SDS011;4395;48.554;8.820;2022-11-12T10:38:44;3.65;;;3.20;;
8716;SDS011;4395;48.554;8.820;2022-11-12T10:41:18;2.93;;;2.73;;
8716;SDS011;4395;48.554;8.820;2022-11-12T10:43:43;9.63;;;4.50;;
8716;SDS011;4395;48.554;8.820;2022-11-12T10:46:17;3.40;;;3.10;;
8716;SDS011;4395;48.554;8.820;2022-11-12T10:48:39;4.20;;;3.80;;
8716;SDS011;4395;48.554;8.820;2022-11-12T10:51:18;6.00;;;4.77;;
8716;SDS011;4395;48.554;8.820;2022-11-12T10:53:46;5.57;;;4.83;;
8716;SDS011;4395;48.554;8.820;2022-11-12T10:56:23;4.80;;;4.30;;
8716;SDS011;4395;48.554;8.820;2022-11-12T10:59:01;5.83;;;5.23;;
8716;SDS011;4395;48.554;8.820;2022-11-12T11:01:29;4.33;;;2.90;;
8716;SDS011;4395;48.554;8.820;2022-11-12T11:03:56;4.67;;;2.80;;
8716;SDS011;4395;48.554;8.820;2022-11-12T11:06:19;3.23;;;2.93;;
8716;SDS011;4395;48.554;8.820;2022-11-12T11:08:43;4.47;;;3.40;;
8716;SDS011;4395;48.554;8.820;2022-11-12T11:11:13;3.53;;;3.23;;
8716;SDS011;4395;48.554;8.820;2022-11-12T11:13:41;4.13;;;3.73;;
8716;SDS011;4395;48.554;8.820;2022-11-12T11:16:04;4.17;;;3.77;;
8716;SDS011;4395;48.554;8.820;2022-11-12T11:18:27;7.00;;;6.07;;
8716;SDS011;4395;48.554;8.820;2022-11-12T11:20:51;4.60;;;3.60;;
8716;SDS011;4395;48.554;8.820;2022-11-12T11:23:22;2.90;;;2.67;;
8716;SDS011;4395;48.554;8.820;2022-11-12T11:25:48;4.07;;;3.67;;
8716;SDS011;4395;48.554;8.820;2022-11-12T11:28:14;5.73;;;3.50;;
8716;SDS011;4395;48.554;8.820;2022-11-12T11:30:46;3.73;;;3.23;;
8716;SDS011;4395;48.554;8.820;2022-11-12T11:33:25;3.63;;;3.33;;
8716;SDS011;4395;48.554;8.820;2022-11-12T11:35:54;8.93;;;3.50;;
8716;SDS011;4395;48.554;8.820;2022-11-12T11:38:34;4.47;;;3.40;;
8716;SDS011;4395;48.554;8.820;2022-11-12T11:41:07;4.10;;;3.70;;
8716;SDS011;4395;48.554;8.820;2022-11-12T11:43:39;4.93;;;4.50;;
8716;SDS011;4395;48.554;8.820;2022-11-12T11:46:15;4.47;;;4.13;;
8716;SDS011;4395;48.554;8.820;2022-11-12T11:48:49;6.17;;;5.57;;
8716;SDS011;4395;48.554;8.820;2022-11-12T11:51:33;4.83;;;3.87;;
8716;SDS011;4395;48.554;8.820;2022-11-12T11:54:01;4.30;;;4.00;;
8716;SDS011;4395;48.554;8.820;2022-11-12T11:56:35;4.67;;;4.00;;
8716;SDS011;4395;48.554;8.820;2022-11-12T11:59:03;8.53;;;4.87;;
8716;SDS011;4395;48.554;8.820;2022-11-12T12:01:40;7.60;;;4.10;;
8716;SDS011;4395;48.554;8.820;2022-11-12T12:04:21;8.30;;;7.50;;
8716;SDS011;4395;48.554;8.820;2022-11-12T12:07:00;8.43;;;5.53;;
8716;SDS011;4395;48.554;8.820;2022-11-12T12:09:32;9.13;;;4.57;;
8716;SDS011;4395;48.554;8.820;2022-11-12T12:11:59;4.50;;;4.10;;
8716;SDS011;4395;48.554;8.820;2022-11-12T12:14:33;12.57;;;4.80;;
8716;SDS011;4395;48.554;8.820;2022-11-12T12:17:10;5.47;;;4.33;;
8716;SDS011;4395;48.554;8.820;2022-11-12T12:19:56;5.00;;;4.60;;
8716;SDS011;4395;48.554;8.820;2022-11-12T12:22:28;10.97;;;8.43;;
8716;SDS011;4395;48.554;8.820;2022-11-12T12:24:56;6.77;;;5.80;;
8716;SDS011;4395;48.554;8.820;2022-11-12T12:27:23;5.00;;;4.60;;
8716;SDS011;4395;48.554;8.820;2022-11-12T12:29:51;5.27;;;4.43;;
8716;SDS011;4395;48.554;8.820;2022-11-12T12:32:17;5.30;;;4.70;;
8716;SDS011;4395;48.554;8.820;2022-11-12T12:34:46;5.33;;;4.83;;
8716;SDS011;4395;48.554;8.820;2022-11-12T12:37:16;7.33;;;5.10;;
8716;SDS011;4395;48.554;8.820;2022-11-12T12:39:46;5.00;;;4.53;;
8716;SDS011;4395;48.554;8.820;2022-11-12T12:42:14;5.33;;;4.10;;
8716;SDS011;4395;48.554;8.820;2022-11-12T12:44:40;4.77;;;4.03;;
8716;SDS011;4395;48.554;8.820;2022-11-12T12:47:23;5.20;;;4.47;;
8716;SDS011;4395;48.554;8.820;2022-11-12T12:49:46;7.20;;;4.57;;
8716;SDS011;4395;48.554;8.820;2022-11-12T12:52:11;4.70;;;4.30;;
8716;SDS011;4395;48.554;8.820;2022-11-12T12:57:30;6.13;;;3.90;;
8716;SDS011;4395;48.554;8.820;2022-11-12T12:59:59;5.27;;;4.30;;
8716;SDS011;4395;48.554;8.820;2022-11-12T13:02:46;4.20;;;3.90;;
8716;SDS011;4395;48.554;8.820;2022-11-12T13:05:21;7.73;;;4.77;;
8716;SDS011;4395;48.554;8.820;2022-11-12T13:07:44;4.40;;;4.10;;
8716;SDS011;4395;48.554;8.820;2022-11-12T13:13:33;8.23;;;5.57;;
8716;SDS011;4395;48.554;8.820;2022-11-12T13:15:56;4.97;;;4.47;;
8716;SDS011;4395;48.554;8.820;2022-11-12T13:21:14;5.80;;;4.27;;
8716;SDS011;4395;48.554;8.820;2022-11-12T13:23:45;5.47;;;4.73;;
8716;SDS011;4395;48.554;8.820;2022-11-12T13:29:20;11.00;;;9.43;;
8716;SDS011;4395;48.554;8.820;2022-11-12T13:35:20;14.40;;;6.27;;
8716;SDS011;4395;48.554;8.820;2022-11-12T13:37:48;5.70;;;4.93;;
8716;SDS011;4395;48.554;8.820;2022-11-12T13:40:14;7.43;;;6.83;;
8716;SDS011;4395;48.554;8.820;2022-11-12T13:42:37;5.33;;;4.80;;
8716;SDS011;4395;48.554;8.820;2022-11-12T13:45:10;4.87;;;4.43;;
8716;SDS011;4395;48.554;8.820;2022-11-12T13:47:32;6.53;;;4.67;;
8716;SDS011;4395;48.554;8.820;2022-11-12T13:49:53;4.87;;;4.47;;
8716;SDS011;4395;48.554;8.820;2022-11-12T13:52:15;5.20;;;4.70;;
8716;SDS011;4395;48.554;8.820;2022-11-12T13:54:40;4.83;;;4.30;;
8716;SDS011;4395;48.554;8.820;2022-11-12T13:57:12;5.90;;;4.67;;
8716;SDS011;4395;48.554;8.820;2022-11-12T13:59:46;5.20;;;4.37;;
8716;SDS011;4395;48.554;8.820;2022-11-12T14:02:15;4.77;;;4.37;;
8716;SDS011;4395;48.554;8.820;2022-11-12T14:04:40;5.13;;;4.37;;
8716;SDS011;4395;48.554;8.820;2022-11-12T14:07:05;8.40;;;7.60;;
8716;SDS011;4395;48.554;8.820;2022-11-12T14:09:49;7.00;;;6.30;;
8716;SDS011;4395;48.554;8.820;2022-11-12T14:12:35;8.63;;;5.73;;
8716;SDS011;4395;48.554;8.820;2022-11-12T14:15:13;5.23;;;4.83;;
8716;SDS011;4395;48.554;8.820;2022-11-12T14:17:45;5.27;;;4.87;;
8716;SDS011;4395;48.554;8.820;2022-11-12T14:20:18;5.07;;;4.20;;
8716;SDS011;4395;48.554;8.820;2022-11-12T14:22:45;5.07;;;4.57;;
8716;SDS011;4395;48.554;8.820;2022-11-12T14:25:12;4.80;;;4.30;;
8716;SDS011;4395;48.554;8.820;2022-11-12T14:27:37;5.47;;;4.60;;
8716;SDS011;4395;48.554;8.820;2022-11-12T14:30:18;5.30;;;4.63;;
8716;SDS011;4395;48.554;8.820;2022-11-12T14:32:42;5.67;;;4.47;;
8716;SDS011;4395;48.554;8.820;2022-11-12T14:35:24;5.17;;;4.70;;
8716;SDS011;4395;48.554;8.820;2022-11-12T14:37:48;5.00;;;4.50;;
8716;SDS011;4395;48.554;8.820;2022-11-12T14:40:16;6.05;;;5.25;;
8716;SDS011;4395;48.554;8.820;2022-11-12T14:42:39;9.57;;;4.80;;
8716;SDS011;4395;48.554;8.820;2022-11-12T14:45:00;6.80;;;5.23;;
8716;SDS011;4395;48.554;8.820;2022-11-12T14:47:22;6.10;;;5.50;;
8716;SDS011;4395;48.554;8.820;2022-11-12T14:49:44;5.22;;;4.72;;
8716;SDS011;4395;48.554;8.820;2022-11-12T14:52:08;5.00;;;4.60;;
8716;SDS011;4395;48.554;8.820;2022-11-12T14:54:34;5.30;;;4.80;;
8716;SDS011;4395;48.554;8.820;2022-11-12T14:57:02;6.20;;;5.10;;
8716;SDS011;4395;48.554;8.820;2022-11-12T14:59:24;5.35;;;4.85;;
8716;SDS011;4395;48.554;8.820;2022-11-12T15:02:01;6.40;;;5.80;;
8716;SDS011;4395;48.554;8.820;2022-11-12T15:04:50;12.73;;;8.23;;
8716;SDS011;4395;48.554;8.820;2022-11-12T15:07:21;18.60;;;10.93;;
8716;SDS011;4395;48.554;8.820;2022-11-12T15:09:47;11.18;;;7.75;;
8716;SDS011;4395;48.554;8.820;2022-11-12T15:12:10;11.50;;;7.82;;
8716;SDS011;4395;48.554;8.820;2022-11-12T15:14:39;12.77;;;8.10;;
8716;SDS011;4395;48.554;8.820;2022-11-12T15:17:00;11.60;;;10.40;;